Huvudsida
METAR-TAF:

METAR-TAF

Flygplatser :

Abumusa, Iran

latitud: 25-52-33N, longitud: 055-02-01E, höjd: 7 m

Aktuellt väderrapport

Denna rapport gjordes för 8 timmar och 54 minuter sedan, klockan 15:00 UTC
Vind 4 kt från väst/sydväst
Temperatur 24°C
Fuktighet 54%
Tryck 1013 hPa
Sikt 10 km eller mer
Inga moln under 1 500 m eller inga cumulonimbus

METAR: OIBA 151500Z 24004KT CAVOK 24/14 Q1013

Tid: 03:24 (23:54 UTC)


TAF: saknas

Aktuella väderrapporter och prognoser från 4000 flygplatser (METAR- och TAF-rapporter).

De tillgängliga stationerna syns som gula och röda prickar på kartan.

För musen över prickarna för att se namnen på stationerna.

Klicka sedan för att få väderrapporter och prognoser.

För att ändra kartan: Klicka på de gröna knapparna med ett svart kors på för att zooma in; den gröna knappen med ett streck på för att zooma ut; eller på de gröna pilarna för angränsande kartor.


METAR-TAF: